Durango, CO

5:24 AM MST on March 03, 2015 (GMT -0700)
Dalla Mountain Park | Change Station
CLOSE
Current Station
Personal Weather Station
Location: Durango, CO
Elevation: 6752 ft
Nearby Weather Stations

Elev 6752 ft 37.30 °N, 107.88 °W | Updated 3 seconds ago

Overcast
Overcast
22.6 °F
Feels Like 23 °F
N
0.0
Wind Variable Wind from NE
Gusts 2.2 mph

Today
High -- | Low -- °F
--% Chance of Precip.
Yesterday
High -- | Low -- °F
Precip. -- in
6:39 AM 6:07 PM
Waxing Gibbous, 96% visible
Pressure 29.93 in
Visibility 10.0 miles
Clouds Mostly Cloudy 9000 ft
Windchill 23 °F
Dew Point 22 °F
Humidity 99%
Rainfall 0.00 in
Snow Depth Not available.
UV 0 out of 12
Pollen 3.90 out of 12
Air Quality Not available.
Flu Activity Not available.
METAR KDRO 031153Z AUTO 23006KT 10SM BKN090 M04/M05 A2989 RMK AO2 SLP134 70023 T10391050 10000 21039 55003 $

More Conditions Fewer Conditions

Pressure 29.93 in
Visibility 10.0 miles
Clouds Mostly Cloudy 9000 ft
Windchill 23 °F
Dew Point 22 °F
Humidity 99%
Rainfall 0.00 in
Snow Depth Not available.
UV 0 out of 12
Pollen 3.90 out of 12
Air Quality Not available.
Flu Activity Not available.
METAR KDRO 031153Z AUTO 23006KT 10SM BKN090 M04/M05 A2989 RMK AO2 SLP134 70023 T10391050 10000 21039 55003 $

More Conditions Fewer Conditions

10-Day Weather Forecast

Almanac

Astronomy

Mar. 03, 2015 Rise Set
Actual Time
Civil Twilight
Nautical Twilight
Astronomical Twilight
Moon
Length of Visible Light
Length of Day
Tomorrow will be .
, % of the Moon is Illuminated

Today's Extremes

State Highs State Lows

Community

WunderPhotos

Upload Photos

1,802,095 photos uploaded!

WunderBlogs® & News

Nearby

Air Quality

  Air Quality AQ Index Pollutant
Not available.

Snow Depth

Station Depth Elevation

Earthquake Activity

City Distance Mag. Time & Date
Minimum magnitude displayed is 2.5.

Coastal Water Temperatures

Place Temperature

Nearby Weather Stations